Time;durP1;ratioP1;P1;durP2;ratioP2;P2;SDS_P1;SDS_P2;PMS_P1;PMS_P2;Temp;Humidity;BMP_temperature;BMP_pressure;BME280_temperature;BME280_humidity;BME280_pressure;Samples;Min_cycle;Max_cycle;Signal;HPM_P1;HPM_P2
2021/03/19 00:00:28;;;;;;;3.55;3.03;;;18.30;67.10;;;;;;5049827;28;20869;-49
2021/03/19 00:02:54;;;;;;;3.97;3.03;;;18.30;67.20;;;;;;5049797;28;20140;-53
2021/03/19 00:05:22;;;;;;;3.45;2.80;;;18.30;67.10;;;;;;5050273;28;20098;-43
2021/03/19 00:07:51;;;;;;;3.65;2.75;;;18.30;67.10;;;;;;5050197;28;20033;-48
2021/03/19 00:10:25;;;;;;;4.47;2.83;;;18.30;67.00;;;;;;5049452;28;20139;-47
2021/03/19 00:12:52;;;;;;;3.35;2.75;;;18.30;67.10;;;;;;5050462;28;20127;-59
2021/03/19 00:15:20;;;;;;;2.60;2.40;;;18.30;67.00;;;;;;5051198;28;20162;-43
2021/03/19 00:17:47;;;;;;;4.25;2.40;;;18.40;66.70;;;;;;5049191;28;20024;-45
2021/03/19 00:20:13;;;;;;;3.47;3.10;;;18.30;66.90;;;;;;5048906;28;20033;-42
2021/03/19 00:22:39;;;;;;;4.57;2.80;;;18.40;66.70;;;;;;5050211;28;20105;-39
2021/03/19 00:25:06;;;;;;;3.40;2.90;;;18.40;66.60;;;;;;5049976;28;20048;-48
2021/03/19 00:27:33;;;;;;;5.03;2.85;;;18.40;66.50;;;;;;5051712;28;20037;-43
2021/03/19 00:29:59;;;;;;;2.80;2.40;;;18.40;66.40;;;;;;5021517;28;20836;-45
2021/03/19 00:32:25;;;;;;;3.45;2.80;;;18.40;66.30;;;;;;5050212;28;20036;-51
2021/03/19 00:34:51;;;;;;;2.78;2.40;;;18.50;66.20;;;;;;5048708;28;20024;-44
2021/03/19 00:37:17;;;;;;;3.83;2.75;;;18.50;66.30;;;;;;5050297;28;20106;-43
2021/03/19 00:39:43;;;;;;;2.20;2.10;;;18.50;66.10;;;;;;5048547;28;20095;-47
2021/03/19 00:42:09;;;;;;;2.78;2.28;;;18.50;66.10;;;;;;5050997;28;20032;-51
2021/03/19 00:44:39;;;;;;;2.30;1.75;;;18.50;66.10;;;;;;5050246;28;20041;-45
2021/03/19 00:47:05;;;;;;;2.05;1.90;;;18.50;66.10;;;;;;5050118;28;20060;-43
2021/03/19 00:49:32;;;;;;;7.15;2.58;;;18.50;66.10;;;;;;5049116;28;20130;-51
2021/03/19 00:51:58;;;;;;;2.80;2.22;;;18.50;66.10;;;;;;5049423;28;20029;-43
2021/03/19 00:54:24;;;;;;;1.80;1.70;;;18.50;66.10;;;;;;5050289;28;20813;-50
2021/03/19 00:56:50;;;;;;;4.53;2.30;;;18.50;66.00;;;;;;5049950;28;20047;-43
2021/03/19 00:59:16;;;;;;;2.30;2.00;;;18.50;65.70;;;;;;5048673;28;20033;-47
2021/03/19 01:01:42;;;;;;;2.38;2.00;;;18.50;65.60;;;;;;5048162;28;20581;-50
2021/03/19 01:04:08;;;;;;;3.50;2.22;;;18.50;65.60;;;;;;5049727;28;20044;-45
2021/03/19 01:06:34;;;;;;;2.38;2.17;;;18.50;65.70;;;;;;5050931;28;20114;-43
2021/03/19 01:09:00;;;;;;;2.08;1.73;;;18.50;65.70;;;;;;5049239;28;20513;-47
2021/03/19 01:11:27;;;;;;;2.63;1.90;;;18.50;65.70;;;;;;5047736;28;20229;-46
2021/03/19 01:13:54;;;;;;;2.20;1.98;;;18.50;65.80;;;;;;5049406;28;20045;-48
2021/03/19 01:16:20;;;;;;;2.00;1.80;;;18.50;65.70;;;;;;5048115;28;20085;-53
2021/03/19 01:18:46;;;;;;;3.20;1.70;;;18.50;65.50;;;;;;5049719;28;20123;-43
2021/03/19 01:21:12;;;;;;;2.40;1.70;;;18.50;65.40;;;;;;5048804;28;20136;-53
2021/03/19 01:23:38;;;;;;;2.17;1.98;;;18.50;65.50;;;;;;5027114;28;20055;-53
2021/03/19 01:26:05;;;;;;;2.22;2.03;;;18.50;65.40;;;;;;5009976;28;20049;-43
2021/03/19 01:28:31;;;;;;;1.88;1.77;;;18.50;65.10;;;;;;5018881;28;20040;-46
2021/03/19 01:30:57;;;;;;;2.70;1.80;;;18.50;65.10;;;;;;5008676;28;20025;-43
2021/03/19 01:33:23;;;;;;;2.55;1.90;;;18.50;65.30;;;;;;5020878;28;20450;-55
2021/03/19 01:35:49;;;;;;;2.03;1.50;;;18.60;65.20;;;;;;5020137;28;20033;-42
2021/03/19 01:38:15;;;;;;;2.20;2.00;;;18.60;65.10;;;;;;5019463;28;20033;-52
2021/03/19 01:40:46;;;;;;;2.30;1.65;;;18.50;65.90;;;;;;5018252;28;20026;-47
2021/03/19 01:43:27;;;;;;;1.73;1.63;;;18.50;65.20;;;;;;5020124;28;20026;-39
2021/03/19 01:46:34;;;;;;;2.13;2.03;;;18.60;65.10;;;;;;5019168;28;20061;-54
2021/03/19 01:49:38;;;;;;;1.77;1.67;;;18.50;65.20;;;;;;5019446;28;20323;-44
2021/03/19 01:52:41;;;;;;;1.67;1.42;;;18.50;65.30;;;;;;5018378;28;20111;-51
2021/03/19 01:55:45;;;;;;;1.70;1.60;;;18.50;65.30;;;;;;5019543;28;20597;-49
2021/03/19 01:58:48;;;;;;;1.75;1.65;;;18.50;65.20;;;;;;5019028;28;20041;-43
2021/03/19 02:01:51;;;;;;;3.63;1.60;;;18.40;65.20;;;;;;5021812;28;20398;-45
2021/03/19 02:04:59;;;;;;;1.77;1.50;;;18.50;65.00;;;;;;5022790;28;20038;-47
2021/03/19 02:08:02;;;;;;;1.70;1.52;;;18.50;64.90;;;;;;4951794;28;20039;-48
2021/03/19 02:11:05;;;;;;;1.90;1.60;;;18.50;64.80;;;;;;4949591;28;20043;-43
2021/03/19 02:14:08;;;;;;;1.55;1.45;;;18.50;64.70;;;;;;4951471;28;20043;-44
2021/03/19 02:17:11;;;;;;;1.50;1.40;;;18.50;64.90;;;;;;4951225;28;20050;-48
2021/03/19 02:20:24;;;;;;;1.60;1.48;;;18.50;65.20;;;;;;4950356;28;20138;-51
2021/03/19 02:23:27;;;;;;;1.65;1.52;;;18.40;65.10;;;;;;4907886;29;20135;-47
2021/03/19 02:26:30;;;;;;;1.55;1.45;;;18.40;65.30;;;;;;4912622;29;20114;-43
2021/03/19 02:29:33;;;;;;;1.50;1.40;;;18.40;65.40;;;;;;4912459;29;20039;-47
2021/03/19 02:32:26;;;;;;;1.80;1.30;;;18.40;65.40;;;;;;4912099;29;20040;-45
2021/03/19 02:35:03;;;;;;;1.70;1.30;;;18.40;65.60;;;;;;4912059;29;20036;-52
2021/03/19 02:37:33;;;;;;;1.20;1.10;;;18.40;65.40;;;;;;4913769;29;20151;-51
2021/03/19 02:39:59;;;;;;;2.92;1.40;;;18.40;65.50;;;;;;4911630;29;20059;-53
2021/03/19 02:42:27;;;;;;;1.05;1.05;;;18.40;65.70;;;;;;4914388;29;20043;-45
2021/03/19 02:44:53;;;;;;;1.58;1.48;;;18.40;65.40;;;;;;4943128;28;20050;-48
2021/03/19 02:47:19;;;;;;;1.40;1.20;;;18.30;65.70;;;;;;4961460;28;20035;-43
2021/03/19 02:49:45;;;;;;;1.50;1.33;;;18.30;65.80;;;;;;4959754;28;20093;-45
2021/03/19 02:52:12;;;;;;;1.77;1.42;;;18.30;65.90;;;;;;4961287;28;20047;-44
2021/03/19 02:54:38;;;;;;;1.30;1.20;;;18.30;66.00;;;;;;4961891;28;21054;-40
2021/03/19 02:57:04;;;;;;;1.73;1.13;;;18.30;65.80;;;;;;4960638;28;20603;-46
2021/03/19 02:59:30;;;;;;;1.08;1.02;;;18.30;65.70;;;;;;5003777;28;20057;-48
2021/03/19 03:01:56;;;;;;;1.70;1.60;;;18.30;65.70;;;;;;5020731;28;20037;-47
2021/03/19 03:04:22;;;;;;;1.42;1.25;;;18.40;65.30;;;;;;5022310;28;20033;-48
2021/03/19 03:06:50;;;;;;;1.77;1.35;;;18.30;65.70;;;;;;5022054;28;20467;-42
2021/03/19 03:09:22;;;;;;;1.45;1.17;;;18.30;65.50;;;;;;5023391;28;20037;-45
2021/03/19 03:11:48;;;;;;;1.25;1.15;;;18.30;65.40;;;;;;5009104;28;20037;-43
2021/03/19 03:14:15;;;;;;;1.40;1.30;;;18.30;65.50;;;;;;5021359;28;20033;-42
2021/03/19 03:16:41;;;;;;;1.60;1.45;;;18.40;65.40;;;;;;5021855;28;20684;-48
2021/03/19 03:19:09;;;;;;;1.60;1.15;;;18.40;65.20;;;;;;5021685;28;20095;-43
2021/03/19 03:21:35;;;;;;;1.40;1.30;;;18.40;65.30;;;;;;5021944;28;20049;-48
2021/03/19 03:24:01;;;;;;;0.98;0.98;;;18.40;65.50;;;;;;5048563;28;20078;-48
2021/03/19 03:26:28;;;;;;;1.30;1.20;;;18.40;65.40;;;;;;5051720;28;20040;-43
2021/03/19 03:28:55;;;;;;;1.42;1.30;;;18.30;65.60;;;;;;5050971;28;20063;-48
2021/03/19 03:31:21;;;;;;;1.48;1.13;;;18.30;65.60;;;;;;5049427;28;20033;-43
2021/03/19 03:33:47;;;;;;;1.70;1.13;;;18.30;65.70;;;;;;5051117;28;20060;-42
2021/03/19 03:36:13;;;;;;;1.27;1.17;;;18.30;65.60;;;;;;5051050;28;20025;-43
2021/03/19 03:38:39;;;;;;;0.98;0.98;;;18.30;65.60;;;;;;5050532;28;21276;-42
2021/03/19 03:41:07;;;;;;;1.77;1.30;;;18.30;65.60;;;;;;5050051;28;20032;-42
2021/03/19 03:43:34;;;;;;;1.33;1.10;;;18.30;65.80;;;;;;5048935;28;20037;-43
2021/03/19 03:46:00;;;;;;;1.20;1.10;;;18.20;65.70;;;;;;5050679;28;20024;-41
2021/03/19 03:48:28;;;;;;;0.80;0.80;;;18.30;65.80;;;;;;5052499;28;20036;-42
2021/03/19 03:50:54;;;;;;;1.15;1.05;;;18.30;65.80;;;;;;5048620;28;21307;-42
2021/03/19 03:53:21;;;;;;;1.00;1.00;;;18.20;65.80;;;;;;5049158;28;20547;-41
2021/03/19 03:55:48;;;;;;;0.90;0.90;;;18.20;65.70;;;;;;5049757;28;20109;-43
2021/03/19 03:58:14;;;;;;;0.80;0.80;;;18.20;65.60;;;;;;5050473;28;20450;-43
2021/03/19 04:00:40;;;;;;;1.13;1.00;;;18.20;65.70;;;;;;5050826;28;20036;-44
2021/03/19 04:03:07;;;;;;;1.38;1.20;;;18.20;65.70;;;;;;5050246;28;20091;-44
2021/03/19 04:05:36;;;;;;;0.95;0.95;;;18.30;65.50;;;;;;5032121;28;20514;-43
2021/03/19 04:08:02;;;;;;;1.05;1.00;;;18.20;65.60;;;;;;5050111;28;20035;-42
2021/03/19 04:10:28;;;;;;;1.05;1.02;;;18.30;65.40;;;;;;5029683;28;20038;-43
2021/03/19 04:12:54;;;;;;;0.70;0.70;;;18.30;65.50;;;;;;5050229;28;20037;-42
2021/03/19 04:15:20;;;;;;;0.95;0.90;;;18.30;65.50;;;;;;5051558;28;20037;-41
2021/03/19 04:17:46;;;;;;;1.30;1.20;;;18.20;65.30;;;;;;5050189;28;20422;-42
2021/03/19 04:20:15;;;;;;;1.23;0.95;;;18.20;65.30;;;;;;5048219;28;20561;-43
2021/03/19 04:22:41;;;;;;;0.88;0.88;;;18.20;65.30;;;;;;5038097;28;20135;-42
2021/03/19 04:25:08;;;;;;;0.70;0.60;;;18.30;65.30;;;;;;5020556;28;20704;-44
2021/03/19 04:27:38;;;;;;;1.10;1.00;;;18.30;65.30;;;;;;5021065;28;20037;-44
2021/03/19 04:30:05;;;;;;;1.05;1.00;;;18.30;65.10;;;;;;5018782;28;20116;-53
2021/03/19 04:32:31;;;;;;;1.00;0.90;;;18.30;65.10;;;;;;5020447;28;20083;-42
2021/03/19 04:34:57;;;;;;;1.00;1.00;;;18.30;65.20;;;;;;5020616;28;20033;-43
2021/03/19 04:37:23;;;;;;;1.00;0.90;;;18.30;65.20;;;;;;5020585;28;20404;-42
2021/03/19 04:39:49;;;;;;;1.23;1.13;;;18.20;65.10;;;;;;5018920;28;20957;-43
2021/03/19 04:42:15;;;;;;;1.23;0.95;;;18.20;65.30;;;;;;5020890;28;20025;-46
2021/03/19 04:44:43;;;;;;;1.00;0.90;;;18.20;65.10;;;;;;5020528;28;20061;-51
2021/03/19 04:47:09;;;;;;;1.20;0.90;;;18.20;65.30;;;;;;5020236;28;20029;-46
2021/03/19 04:49:36;;;;;;;0.93;0.90;;;18.30;65.20;;;;;;5019047;28;20117;-50
2021/03/19 04:52:02;;;;;;;0.98;0.98;;;18.30;64.90;;;;;;5019702;28;20033;-52
2021/03/19 04:54:28;;;;;;;1.00;1.00;;;18.30;65.10;;;;;;5020835;28;20558;-43
2021/03/19 04:56:54;;;;;;;0.63;0.63;;;18.30;65.10;;;;;;5020050;28;20035;-47
2021/03/19 04:59:21;;;;;;;1.02;0.90;;;18.20;65.00;;;;;;5019523;28;20059;-43
2021/03/19 05:01:53;;;;;;;1.10;0.98;;;18.20;65.20;;;;;;5025255;28;20107;-43
2021/03/19 05:04:21;;;;;;;0.63;0.63;;;18.20;65.40;;;;;;5019879;28;20029;-43
2021/03/19 05:06:48;;;;;;;1.08;0.98;;;18.20;65.30;;;;;;5019823;28;20507;-53
2021/03/19 05:09:15;;;;;;;1.23;1.10;;;18.20;65.30;;;;;;5021059;28;20064;-41
2021/03/19 05:11:40;;;;;;;0.90;0.90;;;18.20;65.10;;;;;;5018808;28;20783;-53
2021/03/19 05:14:06;;;;;;;0.90;0.90;;;18.20;65.10;;;;;;5019174;28;20045;-47
2021/03/19 05:16:32;;;;;;;1.45;1.35;;;18.30;65.10;;;;;;5010817;28;20034;-42
2021/03/19 05:18:58;;;;;;;0.98;0.90;;;18.20;65.30;;;;;;5019504;28;20045;-41
2021/03/19 05:21:24;;;;;;;0.85;0.80;;;18.10;65.60;;;;;;5020064;28;20034;-44
2021/03/19 05:23:50;;;;;;;1.00;0.82;;;18.10;65.70;;;;;;5019055;28;20419;-43
2021/03/19 05:26:16;;;;;;;1.35;1.17;;;18.10;65.90;;;;;;5019174;28;20022;-44
2021/03/19 05:28:42;;;;;;;1.00;0.90;;;18.10;67.20;;;;;;5018929;28;20474;-49
2021/03/19 05:31:08;;;;;;;0.70;0.70;;;18.10;66.90;;;;;;5018060;28;20041;-43
2021/03/19 05:33:48;;;;;;;1.15;1.05;;;18.20;67.30;;;;;;5019447;28;20025;-42
2021/03/19 05:36:14;;;;;;;1.17;1.10;;;18.20;67.60;;;;;;5024373;28;20029;-41
2021/03/19 05:38:40;;;;;;;2.08;0.88;;;18.20;67.30;;;;;;5022353;28;20487;-52
2021/03/19 05:41:06;;;;;;;1.00;0.80;;;18.30;66.90;;;;;;5021163;28;20034;-43
2021/03/19 05:43:35;;;;;;;1.00;0.70;;;18.30;66.40;;;;;;5022086;28;20511;-33
2021/03/19 05:46:06;;;;;;;1.50;0.88;;;18.20;66.50;;;;;;4994613;28;20060;-39
2021/03/19 05:48:50;;;;;;;1.00;0.73;;;18.20;66.40;;;;;;5023588;28;20100;-42
2021/03/19 05:51:23;;;;;;;1.00;0.90;;;18.30;66.30;;;;;;5021509;28;20456;-42
2021/03/19 05:53:55;;;;;;;1.60;0.80;;;18.20;66.00;;;;;;5019756;28;20185;-43
2021/03/19 05:56:23;;;;;;;0.77;0.77;;;18.20;66.00;;;;;;5007601;28;20411;-43
2021/03/19 05:58:49;;;;;;;0.73;0.73;;;18.20;66.10;;;;;;5019839;28;20045;-43
2021/03/19 06:01:14;;;;;;;1.35;0.60;;;18.10;65.90;;;;;;5018444;28;20029;-43
2021/03/19 06:03:41;;;;;;;0.70;0.70;;;18.10;66.10;;;;;;5022303;28;20037;-43
2021/03/19 06:06:08;;;;;;;1.13;1.02;;;18.20;65.90;;;;;;5018374;28;20047;-44
2021/03/19 06:08:45;;;;;;;0.80;0.80;;;18.30;65.50;;;;;;5017503;28;20161;-40
2021/03/19 06:11:16;;;;;;;0.95;0.90;;;18.20;65.50;;;;;;5017023;28;20040;-40
2021/03/19 06:14:15;;;;;;;0.70;0.70;;;18.20;65.80;;;;;;5006186;28;20091;-42
2021/03/19 06:16:42;;;;;;;1.05;0.93;;;18.10;65.90;;;;;;5008018;28;20586;-42
2021/03/19 06:19:32;;;;;;;0.98;0.70;;;18.10;65.50;;;;;;5015114;28;20040;-42
2021/03/19 06:22:20;;;;;;;0.70;0.70;;;18.10;65.60;;;;;;5029660;28;20041;-43
2021/03/19 06:24:56;;;;;;;2.33;0.82;;;18.10;66.00;;;;;;5050585;28;20499;-43
2021/03/19 06:27:24;;;;;;;1.05;0.90;;;18.10;65.80;;;;;;5080104;28;20025;-41
2021/03/19 06:29:52;;;;;;;1.58;0.90;;;18.10;66.10;;;;;;5060088;28;20111;-44
2021/03/19 06:32:21;;;;;;;0.80;0.80;;;18.20;66.30;;;;;;5054822;28;20024;-45
2021/03/19 06:35:05;;;;;;;0.95;0.70;;;18.20;65.90;;;;;;5058558;28;20127;-42
2021/03/19 06:37:32;;;;;;;1.02;0.90;;;18.30;65.60;;;;;;5059813;28;20188;-43
2021/03/19 06:39:59;;;;;;;2.72;0.80;;;18.30;65.50;;;;;;5045666;28;20499;-41
2021/03/19 06:42:24;;;;;;;0.75;0.73;;;18.30;65.40;;;;;;5054547;28;20028;-42
2021/03/19 06:45:07;;;;;;;1.83;0.80;;;18.20;65.20;;;;;;5044170;28;20029;-43
2021/03/19 06:47:40;;;;;;;3.55;0.80;;;18.30;65.50;;;;;;5052507;28;20386;-44
2021/03/19 06:50:06;;;;;;;1.33;1.05;;;18.30;65.60;;;;;;5053743;28;20033;-41
2021/03/19 06:52:31;;;;;;;0.80;0.80;;;18.30;65.30;;;;;;5052464;28;20478;-43
2021/03/19 06:54:59;;;;;;;1.92;0.80;;;18.30;65.50;;;;;;5052823;28;20066;-42
2021/03/19 06:57:26;;;;;;;1.58;0.80;;;18.30;65.40;;;;;;5054878;28;20570;-42
2021/03/19 06:59:56;;;;;;;1.50;0.82;;;18.20;65.60;;;;;;5052380;28;20041;-42
2021/03/19 07:02:46;;;;;;;1.10;0.93;;;18.10;65.80;;;;;;5052539;28;20024;-42
2021/03/19 07:05:26;;;;;;;0.73;0.70;;;18.00;66.70;;;;;;5052249;28;20049;-39
2021/03/19 07:08:09;;;;;;;1.30;0.57;;;18.00;67.10;;;;;;5052577;28;20095;-39
2021/03/19 07:10:38;;;;;;;0.63;0.63;;;18.00;67.40;;;;;;5051536;28;20035;-39
2021/03/19 07:13:23;;;;;;;0.70;0.70;;;17.90;67.10;;;;;;5052220;28;20471;-42
2021/03/19 07:15:58;;;;;;;2.13;0.90;;;18.00;67.10;;;;;;5047081;28;20171;-38
2021/03/19 07:18:54;;;;;;;0.82;0.65;;;18.00;67.80;;;;;;5051370;28;20510;-48
2021/03/19 07:21:34;;;;;;;0.55;0.55;;;17.90;67.00;;;;;;5053019;28;20032;-38
2021/03/19 07:24:28;;;;;;;1.20;0.60;;;17.90;67.70;;;;;;5047054;28;20049;-40
2021/03/19 07:27:02;;;;;;;0.80;0.60;;;18.00;67.10;;;;;;5051871;28;20035;-40
2021/03/19 07:29:38;;;;;;;2.22;0.50;;;18.10;66.50;;;;;;5031618;28;20480;-43
2021/03/19 07:32:10;;;;;;;0.65;0.50;;;18.10;65.50;;;;;;5050359;28;20055;-38
2021/03/19 07:34:44;;;;;;;1.30;0.68;;;18.10;66.20;;;;;;5056061;28;20033;-39
2021/03/19 07:37:46;;;;;;;0.70;0.70;;;18.00;65.80;;;;;;5051410;28;20027;-39
2021/03/19 07:40:30;;;;;;;0.65;0.63;;;18.00;66.00;;;;;;5040772;28;20032;-38
2021/03/19 07:43:12;;;;;;;1.77;0.70;;;17.90;66.50;;;;;;5050078;28;20021;-38
2021/03/19 07:45:56;;;;;;;2.15;0.80;;;17.90;66.80;;;;;;5052008;28;20029;-40
2021/03/19 07:48:23;;;;;;;0.65;0.60;;;17.90;66.50;;;;;;5052869;28;20036;-39
2021/03/19 07:51:24;;;;;;;0.77;0.40;;;17.90;66.70;;;;;;5050612;28;20109;-39
2021/03/19 07:54:06;;;;;;;0.60;0.60;;;17.90;66.70;;;;;;5051921;28;20437;-39
2021/03/19 07:56:32;;;;;;;0.52;0.50;;;17.90;66.50;;;;;;5047675;28;20024;-39
2021/03/19 07:59:30;;;;;;;0.60;0.60;;;17.90;67.00;;;;;;5051325;28;20041;-38
2021/03/19 08:02:13;;;;;;;0.70;0.65;;;17.90;67.00;;;;;;5050703;28;20497;-39
2021/03/19 08:04:51;;;;;;;0.70;0.60;;;17.90;67.60;;;;;;5051242;28;20056;-39
2021/03/19 08:07:28;;;;;;;0.60;0.60;;;18.00;66.80;;;;;;5036343;28;20036;-38
2021/03/19 08:10:29;;;;;;;1.05;0.68;;;17.90;66.70;;;;;;5049282;28;20517;-40
2021/03/19 08:13:13;;;;;;;1.02;0.50;;;17.90;66.70;;;;;;5050487;28;20064;-40
2021/03/19 08:16:00;;;;;;;0.55;0.55;;;18.00;66.50;;;;;;5048606;28;20048;-40
2021/03/19 08:18:58;;;;;;;5.88;0.50;;;18.00;66.50;;;;;;5050591;28;20086;-38
2021/03/19 08:21:35;;;;;;;0.73;0.68;;;18.00;66.40;;;;;;5038979;28;20071;-39
2021/03/19 08:24:07;;;;;;;0.32;0.32;;;18.00;66.50;;;;;;5050607;28;20049;-38
2021/03/19 08:26:47;;;;;;;1.10;0.30;;;17.90;65.40;;;;;;5050519;28;20021;-42
2021/03/19 08:29:32;;;;;;;0.40;0.40;;;17.90;65.10;;;;;;5051058;28;20043;-42
2021/03/19 08:32:28;;;;;;;0.85;0.30;;;17.90;65.70;;;;;;5051314;28;20061;-41
2021/03/19 08:35:12;;;;;;;1.40;0.50;;;18.00;66.20;;;;;;5055323;28;20025;-41
2021/03/19 08:37:55;;;;;;;0.50;0.50;;;17.90;65.60;;;;;;5048697;28;20115;-42
2021/03/19 08:40:31;;;;;;;0.57;0.40;;;17.90;65.80;;;;;;5050782;28;20037;-44
2021/03/19 08:42:57;;;;;;;0.73;0.52;;;17.90;65.70;;;;;;5065748;28;20017;-42
2021/03/19 08:45:24;;;;;;;0.50;0.40;;;17.90;66.00;;;;;;5034611;28;20078;-42
2021/03/19 08:47:53;;;;;;;0.50;0.50;;;18.00;66.30;;;;;;5066053;28;20035;-42
2021/03/19 08:50:33;;;;;;;0.40;0.40;;;18.00;66.40;;;;;;5049335;28;20057;-43
2021/03/19 08:53:12;;;;;;;0.35;0.35;;;17.90;66.30;;;;;;5050809;28;20113;-40
2021/03/19 08:55:38;;;;;;;0.50;0.40;;;18.00;66.60;;;;;;5050745;28;20075;-40
2021/03/19 08:58:28;;;;;;;0.50;0.50;;;18.00;66.10;;;;;;5066329;28;20025;-40
2021/03/19 09:00:55;;;;;;;1.23;0.30;;;18.00;66.30;;;;;;5049859;28;20403;-41
2021/03/19 09:03:44;;;;;;;0.50;0.50;;;18.00;66.20;;;;;;5048346;28;20123;-37
2021/03/19 09:06:17;;;;;;;0.40;0.40;;;18.00;65.50;;;;;;5051451;28;20033;-38
2021/03/19 09:08:43;;;;;;;0.65;0.32;;;18.10;65.70;;;;;;5049586;28;20032;-41
2021/03/19 09:11:12;;;;;;;0.75;0.30;;;18.20;65.40;;;;;;5050209;28;20033;-38
2021/03/19 09:13:38;;;;;;;0.30;0.30;;;18.20;65.30;;;;;;5050671;28;20024;-42
2021/03/19 09:16:43;;;;;;;1.05;0.45;;;18.30;65.30;;;;;;5065608;28;20124;-40
2021/03/19 09:19:35;;;;;;;0.40;0.40;;;18.30;65.20;;;;;;5050355;28;20049;-38
2021/03/19 09:22:24;;;;;;;0.30;0.30;;;18.40;65.20;;;;;;5048928;28;20041;-39
2021/03/19 09:25:12;;;;;;;0.98;0.30;;;18.40;65.10;;;;;;5047866;28;20028;-38
2021/03/19 09:27:46;;;;;;;0.40;0.40;;;18.40;65.10;;;;;;5032146;28;20115;-41
2021/03/19 09:30:21;;;;;;;0.28;0.28;;;18.40;65.10;;;;;;5066405;28;20098;-39
2021/03/19 09:32:52;;;;;;;0.20;0.20;;;18.50;65.00;;;;;;5049477;28;20055;-38
2021/03/19 09:35:46;;;;;;;0.50;0.40;;;18.50;64.90;;;;;;5039153;28;20437;-42
2021/03/19 09:38:23;;;;;;;0.63;0.50;;;18.50;64.90;;;;;;5037647;28;20056;-42
2021/03/19 09:40:51;;;;;;;0.57;0.57;;;18.60;64.90;;;;;;5038358;28;20503;-42
2021/03/19 09:43:36;;;;;;;0.70;0.70;;;18.60;64.70;;;;;;5034682;28;20044;-44
2021/03/19 09:46:05;;;;;;;0.70;0.70;;;18.70;64.60;;;;;;5037510;28;20044;-42
2021/03/19 09:48:33;;;;;;;0.80;0.80;;;18.70;64.60;;;;;;5038722;28;20568;-43
2021/03/19 09:51:15;;;;;;;0.90;0.90;;;18.70;64.50;;;;;;5037651;28;20206;-43
2021/03/19 09:53:40;;;;;;;0.88;0.88;;;18.70;64.60;;;;;;5035899;28;20037;-44
2021/03/19 09:56:16;;;;;;;1.00;1.00;;;18.70;64.60;;;;;;5038744;28;20141;-43
2021/03/19 09:58:52;;;;;;;1.05;1.00;;;18.70;64.60;;;;;;5039106;28;20124;-41
2021/03/19 10:01:27;;;;;;;1.20;1.10;;;18.70;64.60;;;;;;5039306;28;20683;-43
2021/03/19 10:03:57;;;;;;;0.80;0.80;;;18.70;64.50;;;;;;5019735;28;20146;-42
2021/03/19 10:06:30;;;;;;;1.10;1.10;;;18.70;64.50;;;;;;5040380;28;20060;-42
2021/03/19 10:09:24;;;;;;;1.15;1.15;;;18.70;64.40;;;;;;5038354;28;20057;-41
2021/03/19 10:12:14;;;;;;;0.82;0.82;;;18.70;64.50;;;;;;4995207;28;20053;-43
2021/03/19 10:14:42;;;;;;;0.73;0.73;;;18.70;64.40;;;;;;4994603;28;20049;-41
2021/03/19 10:17:27;;;;;;;1.00;1.00;;;18.80;64.40;;;;;;4979336;28;21551;-44
2021/03/19 10:20:01;;;;;;;0.98;0.98;;;18.90;64.10;;;;;;4996291;28;20052;-44
2021/03/19 10:22:39;;;;;;;1.20;0.90;;;19.00;63.60;;;;;;4982852;28;20054;-43
2021/03/19 10:25:27;;;;;;;0.60;0.60;;;19.10;63.20;;;;;;4998946;28;20129;-43
2021/03/19 10:27:55;;;;;;;0.80;0.80;;;19.30;62.90;;;;;;4998771;28;20029;-49
2021/03/19 10:30:31;;;;;;;0.80;0.80;;;19.30;62.80;;;;;;5000342;28;20129;-44
2021/03/19 10:33:02;;;;;;;0.80;0.80;;;19.40;62.40;;;;;;4999343;28;20108;-44
2021/03/19 10:35:34;;;;;;;0.88;0.88;;;19.40;62.40;;;;;;4982464;28;20056;-43
2021/03/19 10:38:02;;;;;;;0.80;0.80;;;19.40;62.40;;;;;;4983991;28;20048;-40
2021/03/19 10:40:37;;;;;;;0.80;0.80;;;19.40;62.30;;;;;;4983135;28;20046;-43
2021/03/19 10:43:19;;;;;;;0.68;0.68;;;19.40;62.30;;;;;;4982874;28;20381;-45
2021/03/19 10:45:56;;;;;;;0.80;0.80;;;19.40;62.20;;;;;;4982625;28;20030;-43
2021/03/19 10:48:37;;;;;;;0.80;0.80;;;19.40;62.20;;;;;;5015501;28;20079;-43
2021/03/19 10:51:23;;;;;;;0.70;0.70;;;19.50;62.10;;;;;;5040111;28;20055;-42
2021/03/19 10:53:52;;;;;;;0.70;0.70;;;19.50;62.00;;;;;;5038902;28;20033;-46
2021/03/19 10:56:17;;;;;;;0.77;0.77;;;19.40;62.10;;;;;;5041376;28;20037;-42
2021/03/19 10:58:46;;;;;;;0.80;0.80;;;19.40;62.30;;;;;;5023394;28;20025;-39
2021/03/19 11:01:34;;;;;;;0.90;0.65;;;19.30;62.40;;;;;;5041362;28;20040;-44
2021/03/19 11:04:01;;;;;;;0.60;0.60;;;19.30;62.50;;;;;;5039479;28;20057;-41
2021/03/19 11:06:37;;;;;;;0.60;0.60;;;19.30;62.60;;;;;;5042631;28;20033;-51
2021/03/19 11:09:16;;;;;;;0.65;0.65;;;19.30;62.60;;;;;;5040639;28;20515;-46
2021/03/19 11:11:45;;;;;;;0.57;0.57;;;19.30;62.50;;;;;;5038548;28;20029;-46
2021/03/19 11:14:11;;;;;;;0.68;0.68;;;19.30;62.40;;;;;;5036276;28;20083;-43
2021/03/19 11:16:40;;;;;;;0.70;0.70;;;19.30;62.40;;;;;;5040713;28;20040;-47
2021/03/19 11:19:08;;;;;;;1.33;0.90;;;19.40;62.40;;;;;;5023404;28;20049;-45
2021/03/19 11:21:35;;;;;;;0.98;0.90;;;19.50;62.10;;;;;;5043042;28;20549;-53
2021/03/19 11:24:23;;;;;;;1.35;1.25;;;19.50;61.80;;;;;;5038416;28;21380;-50
2021/03/19 11:26:58;;;;;;;1.40;1.30;;;19.60;61.60;;;;;;5041221;28;20029;-44
2021/03/19 11:29:33;;;;;;;;;;;19.60;61.50;;;;;;5039340;28;20086;-42
2021/03/19 11:32:28;;;;;;;1.50;1.40;;;19.60;61.50;;;;;;5039115;28;19967;-52
2021/03/19 11:34:55;;;;;;;1.90;1.80;;;19.70;61.30;;;;;;5037745;28;20036;-57
2021/03/19 11:37:27;;;;;;;1.60;1.50;;;19.70;61.30;;;;;;5038401;28;20569;-43
2021/03/19 11:39:56;;;;;;;1.40;1.30;;;19.70;61.10;;;;;;5041181;28;20055;-42
2021/03/19 11:42:35;;;;;;;1.55;1.45;;;19.70;61.20;;;;;;5041930;28;20061;-42
2021/03/19 11:45:07;;;;;;;1.70;1.55;;;19.70;61.10;;;;;;5038611;28;20037;-45
2021/03/19 11:47:36;;;;;;;1.50;1.40;;;19.80;60.90;;;;;;5041468;28;20025;-43
2021/03/19 11:50:22;;;;;;;1.60;1.50;;;19.90;61.70;;;;;;5039157;28;20024;-44
2021/03/19 11:52:56;;;;;;;1.63;1.52;;;19.90;60.90;;;;;;5040402;28;20072;-43
2021/03/19 11:55:34;;;;;;;1.50;1.40;;;20.00;60.70;;;;;;5039869;28;20025;-42
2021/03/19 11:58:01;;;;;;;1.25;1.15;;;20.00;60.50;;;;;;5040563;28;20059;-41
2021/03/19 12:00:29;;;;;;;1.65;1.55;;;20.10;60.60;;;;;;5042240;28;20049;-44
2021/03/19 12:03:01;;;;;;;1.35;1.17;;;20.00;60.50;;;;;;5040851;28;20036;-44
2021/03/19 12:05:29;;;;;;;1.40;1.17;;;20.00;60.60;;;;;;5039502;28;20163;-43
2021/03/19 12:07:55;;;;;;;1.50;1.40;;;20.00;60.70;;;;;;5039102;28;20807;-43
2021/03/19 12:10:26;;;;;;;1.15;1.05;;;20.10;60.50;;;;;;5041034;28;20060;-44
2021/03/19 12:12:53;;;;;;;1.55;1.45;;;20.00;60.60;;;;;;5039821;28;20064;-43
2021/03/19 12:15:19;;;;;;;1.27;1.17;;;20.10;60.60;;;;;;5039104;28;20044;-44
2021/03/19 12:17:46;;;;;;;1.50;1.40;;;20.10;60.50;;;;;;5039573;28;20037;-45
2021/03/19 12:20:13;;;;;;;1.33;1.02;;;20.10;60.60;;;;;;5039098;28;20041;-44
2021/03/19 12:22:40;;;;;;;1.25;0.80;;;20.10;60.50;;;;;;5042205;28;20040;-44
2021/03/19 12:25:07;;;;;;;0.98;0.95;;;20.10;60.40;;;;;;5047171;28;20047;-49
2021/03/19 12:27:34;;;;;;;1.00;1.00;;;20.10;60.30;;;;;;5051410;28;20029;-45
2021/03/19 12:30:00;;;;;;;1.38;1.13;;;20.10;60.40;;;;;;5050795;28;20051;-43
2021/03/19 12:32:26;;;;;;;0.95;0.95;;;20.10;60.70;;;;;;5055537;28;20499;-41
2021/03/19 12:34:52;;;;;;;1.40;1.30;;;20.10;60.60;;;;;;5056789;28;20031;-42
2021/03/19 12:37:19;;;;;;;1.17;0.90;;;20.10;60.50;;;;;;5059504;28;20108;-41
2021/03/19 12:39:46;;;;;;;1.00;0.90;;;20.00;60.70;;;;;;5054903;28;20043;-34
2021/03/19 12:42:12;;;;;;;0.80;0.80;;;20.00;60.80;;;;;;5053690;28;20063;-44
2021/03/19 12:44:38;;;;;;;0.90;0.90;;;20.00;60.90;;;;;;5054035;28;20151;-42
2021/03/19 12:47:04;;;;;;;1.10;1.00;;;20.00;61.00;;;;;;5055018;28;20037;-44
2021/03/19 12:49:30;;;;;;;2.80;0.98;;;19.90;61.10;;;;;;5057448;28;20039;-40
2021/03/19 12:51:56;;;;;;;1.25;1.15;;;19.90;61.10;;;;;;5051918;28;20078;-43
2021/03/19 12:54:23;;;;;;;1.50;1.00;;;19.90;61.10;;;;;;5054523;28;20032;-46
2021/03/19 12:56:49;;;;;;;0.80;0.80;;;19.90;61.10;;;;;;5055801;28;20067;-45
2021/03/19 12:59:16;;;;;;;0.80;0.80;;;19.80;61.10;;;;;;5056645;28;20056;-43
2021/03/19 13:01:43;;;;;;;1.05;0.90;;;19.80;61.20;;;;;;5054975;28;20412;-43
2021/03/19 13:04:09;;;;;;;0.93;0.88;;;19.80;61.20;;;;;;5052617;28;20044;-44
2021/03/19 13:06:36;;;;;;;0.80;0.80;;;19.80;61.30;;;;;;5056666;28;20394;-44
2021/03/19 13:09:03;;;;;;;1.23;0.90;;;19.90;61.10;;;;;;5049722;28;20036;-40
2021/03/19 13:11:30;;;;;;;0.80;0.80;;;19.90;61.10;;;;;;5057544;28;20573;-47
2021/03/19 13:13:57;;;;;;;0.60;0.60;;;19.80;61.10;;;;;;5050751;28;20052;-42
2021/03/19 13:16:23;;;;;;;0.90;0.90;;;19.90;61.10;;;;;;5056772;28;20123;-47
2021/03/19 13:18:50;;;;;;;0.70;0.70;;;19.90;61.00;;;;;;5056464;28;20037;-43